Menara, Morocco

5:14 PM WEST on August 20, 2014 (GMT +0100)
Menara | Change Station
CLOSE
Current Station
Airport
Location: Marrakech,
Elevation: 1529 ft
Nearby Weather Stations

Elev 1529 ft 31.61 °N, 8.04 °W | Updated 14 minutes ago

Partly Cloudy
Partly Cloudy
104 °F
Feels Like 102 °F
N
12
Wind Variable Wind from West

Today
High -- | Low -- °F
--% Chance of Precip.
Yesterday
High -- | Low -- °F
Precip. -- in
7:00 AM 8:10 PM
Waning Crescent, 21% visible
Pressure 29.98 in
Visibility 6.2 miles
Clouds Few 3300 ft
Heat Index 102 °F
Dew Point 54 °F
Humidity 19%
Rainfall 0.00 in
Snow Depth Not available.
UV 5 out of 12
Pollen Not available.
Air Quality Not available.
Flu Activity Not available.
METAR GMMX 201600Z 27010KT 240V310 9999 FEW033 40/12 Q1015 TEMPO 32014KT

More Conditions Fewer Conditions

Pressure 29.98 in
Visibility 6.2 miles
Clouds Few 3300 ft
Heat Index 102 °F
Dew Point 54 °F
Humidity 19%
Rainfall 0.00 in
Snow Depth Not available.
UV 5 out of 12
Pollen Not available.
Air Quality Not available.
Flu Activity Not available.
METAR GMMX 201600Z 27010KT 240V310 9999 FEW033 40/12 Q1015 TEMPO 32014KT

More Conditions Fewer Conditions

10-Day Weather Forecast

Almanac

Astronomy

Aug. 20, 2014 Rise Set
Actual Time 7:00 AM WEST 8:10 PM WEST
Civil Twilight 6:34 AM WEST 8:35 PM WEST
Nautical Twilight 6:04 AM WEST 9:05 PM WEST
Astronomical Twilight 5:33 AM WEST 9:36 PM WEST
Moon 2:35 AM WEST 4:38 PM WEST
Length of Visible Light 14h 00m
Length of Day
13h 10m
Tomorrow will be 1m 45s shorter.
Waning Crescent, 21% of the Moon is Illuminated
Today
Waning Crescent
Aug 25
New
Sep 2
First Quarter
Sep 8
Full
Sep 15
Last Quarter

Today's Extremes

Country Highs Country Lows

Community

WunderPhotos

Upload Photos

1,745,684 photos uploaded!

Nearby

Snow Depth

Not available.

Earthquake Activity

City Distance Mag. Time & Date
No recent earthquake activity has been reported nearby.
Minimum magnitude displayed is 2.5.

Coastal Water Temperatures

Place Temperature
No Stations Reporting

Nearby Weather Stations